sensor_id;sensor_type;location;lat;lon;timestamp;temperature;humidity
37432;DHT22;23292;51.300;6.252;2024-01-30T00:00:31;6.20;99.90
37432;DHT22;23292;51.300;6.252;2024-01-30T00:02:58;6.20;99.90
37432;DHT22;23292;51.300;6.252;2024-01-30T00:05:25;6.20;99.90
37432;DHT22;23292;51.300;6.252;2024-01-30T00:07:51;6.20;99.90
37432;DHT22;23292;51.300;6.252;2024-01-30T00:10:18;6.10;99.90
37432;DHT22;23292;51.300;6.252;2024-01-30T00:12:45;6.20;99.90
37432;DHT22;23292;51.300;6.252;2024-01-30T00:15:13;6.20;99.90
37432;DHT22;23292;51.300;6.252;2024-01-30T00:17:39;6.20;99.90
37432;DHT22;23292;51.300;6.252;2024-01-30T00:20:06;6.20;99.90
37432;DHT22;23292;51.300;6.252;2024-01-30T00:22:35;6.20;99.90
37432;DHT22;23292;51.300;6.252;2024-01-30T00:25:02;6.30;99.90
37432;DHT22;23292;51.300;6.252;2024-01-30T00:27:29;6.30;99.90
37432;DHT22;23292;51.300;6.252;2024-01-30T00:29:56;6.30;99.90
37432;DHT22;23292;51.300;6.252;2024-01-30T00:32:24;6.40;99.90
37432;DHT22;23292;51.300;6.252;2024-01-30T00:34:51;6.40;99.90
37432;DHT22;23292;51.300;6.252;2024-01-30T00:37:18;6.50;99.90
37432;DHT22;23292;51.300;6.252;2024-01-30T00:39:44;6.60;99.90
37432;DHT22;23292;51.300;6.252;2024-01-30T00:42:11;6.60;99.90
37432;DHT22;23292;51.300;6.252;2024-01-30T00:44:38;6.60;99.90
37432;DHT22;23292;51.300;6.252;2024-01-30T00:47:05;6.80;99.90
37432;DHT22;23292;51.300;6.252;2024-01-30T00:49:32;6.80;99.90
37432;DHT22;23292;51.300;6.252;2024-01-30T00:52:00;6.70;99.90
37432;DHT22;23292;51.300;6.252;2024-01-30T00:54:27;6.80;99.90
37432;DHT22;23292;51.300;6.252;2024-01-30T00:56:54;6.70;99.90
37432;DHT22;23292;51.300;6.252;2024-01-30T00:59:21;6.70;99.90
37432;DHT22;23292;51.300;6.252;2024-01-30T01:01:47;6.60;99.90
37432;DHT22;23292;51.300;6.252;2024-01-30T01:04:14;6.50;99.90
37432;DHT22;23292;51.300;6.252;2024-01-30T01:06:41;6.40;99.90
37432;DHT22;23292;51.300;6.252;2024-01-30T01:09:11;6.40;99.90
37432;DHT22;23292;51.300;6.252;2024-01-30T01:11:39;6.30;99.90
37432;DHT22;23292;51.300;6.252;2024-01-30T01:14:06;6.20;99.90
37432;DHT22;23292;51.300;6.252;2024-01-30T01:16:34;6.30;99.90
37432;DHT22;23292;51.300;6.252;2024-01-30T01:19:00;6.30;99.90
37432;DHT22;23292;51.300;6.252;2024-01-30T01:21:28;6.20;99.90
37432;DHT22;23292;51.300;6.252;2024-01-30T01:23:55;6.20;99.90
37432;DHT22;23292;51.300;6.252;2024-01-30T01:26:23;6.10;99.90
37432;DHT22;23292;51.300;6.252;2024-01-30T01:28:49;6.20;99.90
37432;DHT22;23292;51.300;6.252;2024-01-30T01:31:16;6.20;99.90
37432;DHT22;23292;51.300;6.252;2024-01-30T01:33:45;6.20;99.90
37432;DHT22;23292;51.300;6.252;2024-01-30T01:36:13;6.20;99.90
37432;DHT22;23292;51.300;6.252;2024-01-30T01:38:40;6.30;99.90
37432;DHT22;23292;51.300;6.252;2024-01-30T01:41:07;6.30;99.90
37432;DHT22;23292;51.300;6.252;2024-01-30T01:43:35;6.40;99.90
37432;DHT22;23292;51.300;6.252;2024-01-30T01:46:02;6.40;99.90
37432;DHT22;23292;51.300;6.252;2024-01-30T01:48:29;6.50;99.90
37432;DHT22;23292;51.300;6.252;2024-01-30T01:50:57;6.60;99.90
37432;DHT22;23292;51.300;6.252;2024-01-30T01:53:26;6.50;99.90
37432;DHT22;23292;51.300;6.252;2024-01-30T01:55:54;6.60;99.90
37432;DHT22;23292;51.300;6.252;2024-01-30T01:58:21;6.60;99.90
37432;DHT22;23292;51.300;6.252;2024-01-30T02:00:50;6.70;99.90
37432;DHT22;23292;51.300;6.252;2024-01-30T02:03:18;6.60;99.90
37432;DHT22;23292;51.300;6.252;2024-01-30T02:05:49;6.60;99.90
37432;DHT22;23292;51.300;6.252;2024-01-30T02:08:17;6.60;99.90
37432;DHT22;23292;51.300;6.252;2024-01-30T02:10:43;6.70;99.90
37432;DHT22;23292;51.300;6.252;2024-01-30T02:13:10;6.70;99.90
37432;DHT22;23292;51.300;6.252;2024-01-30T02:15:37;6.70;99.90
37432;DHT22;23292;51.300;6.252;2024-01-30T02:18:04;6.90;99.90
37432;DHT22;23292;51.300;6.252;2024-01-30T02:20:31;7.00;99.90
37432;DHT22;23292;51.300;6.252;2024-01-30T02:23:01;7.00;99.90
37432;DHT22;23292;51.300;6.252;2024-01-30T02:25:38;6.90;99.90
37432;DHT22;23292;51.300;6.252;2024-01-30T02:28:05;7.00;99.90
37432;DHT22;23292;51.300;6.252;2024-01-30T02:30:32;6.90;99.90
37432;DHT22;23292;51.300;6.252;2024-01-30T02:32:59;6.90;99.90
37432;DHT22;23292;51.300;6.252;2024-01-30T02:35:26;6.90;99.90
37432;DHT22;23292;51.300;6.252;2024-01-30T02:37:53;6.80;99.90
37432;DHT22;23292;51.300;6.252;2024-01-30T02:40:20;6.90;99.90
37432;DHT22;23292;51.300;6.252;2024-01-30T02:42:46;6.80;99.90
37432;DHT22;23292;51.300;6.252;2024-01-30T02:45:14;6.70;99.90
37432;DHT22;23292;51.300;6.252;2024-01-30T02:47:41;6.60;99.90
37432;DHT22;23292;51.300;6.252;2024-01-30T02:50:09;6.60;99.90
37432;DHT22;23292;51.300;6.252;2024-01-30T02:52:36;6.70;99.90
37432;DHT22;23292;51.300;6.252;2024-01-30T02:55:03;6.70;99.90
37432;DHT22;23292;51.300;6.252;2024-01-30T02:57:30;6.70;99.90
37432;DHT22;23292;51.300;6.252;2024-01-30T02:59:57;6.70;99.90
37432;DHT22;23292;51.300;6.252;2024-01-30T03:02:24;6.70;99.90
37432;DHT22;23292;51.300;6.252;2024-01-30T03:04:51;6.60;99.90
37432;DHT22;23292;51.300;6.252;2024-01-30T03:07:18;6.60;99.90
37432;DHT22;23292;51.300;6.252;2024-01-30T03:09:45;6.50;99.90
37432;DHT22;23292;51.300;6.252;2024-01-30T03:12:11;6.50;99.90
37432;DHT22;23292;51.300;6.252;2024-01-30T03:14:38;6.40;99.90
37432;DHT22;23292;51.300;6.252;2024-01-30T03:17:05;6.40;99.90
37432;DHT22;23292;51.300;6.252;2024-01-30T03:19:32;6.30;99.90
37432;DHT22;23292;51.300;6.252;2024-01-30T03:21:59;6.30;99.90
37432;DHT22;23292;51.300;6.252;2024-01-30T03:24:26;6.20;99.90
37432;DHT22;23292;51.300;6.252;2024-01-30T03:26:53;6.10;99.90
37432;DHT22;23292;51.300;6.252;2024-01-30T03:29:20;6.10;99.90
37432;DHT22;23292;51.300;6.252;2024-01-30T03:31:47;6.20;99.90
37432;DHT22;23292;51.300;6.252;2024-01-30T03:34:14;6.10;99.90
37432;DHT22;23292;51.300;6.252;2024-01-30T03:36:42;6.10;99.90
37432;DHT22;23292;51.300;6.252;2024-01-30T03:39:09;6.10;99.90
37432;DHT22;23292;51.300;6.252;2024-01-30T03:41:36;6.10;99.90
37432;DHT22;23292;51.300;6.252;2024-01-30T03:44:03;6.10;99.90
37432;DHT22;23292;51.300;6.252;2024-01-30T03:46:29;6.10;99.90
37432;DHT22;23292;51.300;6.252;2024-01-30T03:48:56;6.10;99.90
37432;DHT22;23292;51.300;6.252;2024-01-30T03:51:23;6.10;99.90
37432;DHT22;23292;51.300;6.252;2024-01-30T03:53:50;6.10;99.90
37432;DHT22;23292;51.300;6.252;2024-01-30T03:56:16;6.20;99.90
37432;DHT22;23292;51.300;6.252;2024-01-30T03:58:44;6.10;99.90
37432;DHT22;23292;51.300;6.252;2024-01-30T04:01:14;6.10;99.90
37432;DHT22;23292;51.300;6.252;2024-01-30T04:03:41;6.10;99.90
37432;DHT22;23292;51.300;6.252;2024-01-30T04:06:10;6.10;99.90
37432;DHT22;23292;51.300;6.252;2024-01-30T04:08:37;6.30;99.90
37432;DHT22;23292;51.300;6.252;2024-01-30T04:11:05;6.30;99.90
37432;DHT22;23292;51.300;6.252;2024-01-30T04:13:34;6.30;99.90
37432;DHT22;23292;51.300;6.252;2024-01-30T04:16:02;6.40;99.90
37432;DHT22;23292;51.300;6.252;2024-01-30T04:18:30;6.20;99.90
37432;DHT22;23292;51.300;6.252;2024-01-30T04:20:57;6.20;99.90
37432;DHT22;23292;51.300;6.252;2024-01-30T04:23:25;6.20;99.90
37432;DHT22;23292;51.300;6.252;2024-01-30T04:25:51;6.10;99.90
37432;DHT22;23292;51.300;6.252;2024-01-30T04:28:18;6.10;99.90
37432;DHT22;23292;51.300;6.252;2024-01-30T04:30:45;6.00;99.90
37432;DHT22;23292;51.300;6.252;2024-01-30T04:33:12;6.00;99.90
37432;DHT22;23292;51.300;6.252;2024-01-30T04:35:39;6.00;99.90
37432;DHT22;23292;51.300;6.252;2024-01-30T04:38:06;6.00;99.90
37432;DHT22;23292;51.300;6.252;2024-01-30T04:40:32;6.00;99.90
37432;DHT22;23292;51.300;6.252;2024-01-30T04:42:59;5.90;99.90
37432;DHT22;23292;51.300;6.252;2024-01-30T04:45:26;5.90;99.90
37432;DHT22;23292;51.300;6.252;2024-01-30T04:47:53;5.90;99.90
37432;DHT22;23292;51.300;6.252;2024-01-30T04:50:20;5.90;99.90
37432;DHT22;23292;51.300;6.252;2024-01-30T04:52:48;5.80;99.90
37432;DHT22;23292;51.300;6.252;2024-01-30T04:55:15;5.80;99.90
37432;DHT22;23292;51.300;6.252;2024-01-30T04:57:41;5.80;99.90
37432;DHT22;23292;51.300;6.252;2024-01-30T05:00:09;5.80;99.90
37432;DHT22;23292;51.300;6.252;2024-01-30T05:02:36;5.80;99.90
37432;DHT22;23292;51.300;6.252;2024-01-30T05:05:03;5.70;99.90
37432;DHT22;23292;51.300;6.252;2024-01-30T05:07:30;5.70;99.90
37432;DHT22;23292;51.300;6.252;2024-01-30T05:09:57;5.70;99.90
37432;DHT22;23292;51.300;6.252;2024-01-30T05:12:26;5.70;99.90
37432;DHT22;23292;51.300;6.252;2024-01-30T05:14:52;5.70;99.90
37432;DHT22;23292;51.300;6.252;2024-01-30T05:17:19;5.70;99.90
37432;DHT22;23292;51.300;6.252;2024-01-30T05:19:46;5.70;99.90
37432;DHT22;23292;51.300;6.252;2024-01-30T05:22:13;5.70;99.90
37432;DHT22;23292;51.300;6.252;2024-01-30T05:24:42;5.70;99.90
37432;DHT22;23292;51.300;6.252;2024-01-30T05:27:09;5.70;99.90
37432;DHT22;23292;51.300;6.252;2024-01-30T05:29:36;5.80;99.90
37432;DHT22;23292;51.300;6.252;2024-01-30T05:32:03;5.90;99.90
37432;DHT22;23292;51.300;6.252;2024-01-30T05:34:32;5.90;99.90
37432;DHT22;23292;51.300;6.252;2024-01-30T05:36:59;5.90;99.90
37432;DHT22;23292;51.300;6.252;2024-01-30T05:39:25;6.00;99.90
37432;DHT22;23292;51.300;6.252;2024-01-30T05:41:52;6.00;99.90
37432;DHT22;23292;51.300;6.252;2024-01-30T05:44:19;6.10;99.90
37432;DHT22;23292;51.300;6.252;2024-01-30T05:46:46;6.10;99.90
37432;DHT22;23292;51.300;6.252;2024-01-30T05:49:12;6.10;99.90
37432;DHT22;23292;51.300;6.252;2024-01-30T05:51:39;6.20;99.90
37432;DHT22;23292;51.300;6.252;2024-01-30T05:54:06;6.20;99.90
37432;DHT22;23292;51.300;6.252;2024-01-30T05:56:33;6.20;99.90
37432;DHT22;23292;51.300;6.252;2024-01-30T05:59:00;6.20;99.90
37432;DHT22;23292;51.300;6.252;2024-01-30T06:01:26;6.10;99.90
37432;DHT22;23292;51.300;6.252;2024-01-30T06:03:53;6.20;99.90
37432;DHT22;23292;51.300;6.252;2024-01-30T06:06:21;6.20;99.90
37432;DHT22;23292;51.300;6.252;2024-01-30T06:08:48;6.20;99.90
37432;DHT22;23292;51.300;6.252;2024-01-30T06:11:14;6.20;99.90
37432;DHT22;23292;51.300;6.252;2024-01-30T06:13:41;6.30;99.90
37432;DHT22;23292;51.300;6.252;2024-01-30T06:16:11;6.30;99.90
37432;DHT22;23292;51.300;6.252;2024-01-30T06:18:38;6.40;99.90
37432;DHT22;23292;51.300;6.252;2024-01-30T06:21:05;6.40;99.90
37432;DHT22;23292;51.300;6.252;2024-01-30T06:23:35;6.50;99.90
37432;DHT22;23292;51.300;6.252;2024-01-30T06:26:02;6.50;99.90
37432;DHT22;23292;51.300;6.252;2024-01-30T06:28:28;6.60;99.90
37432;DHT22;23292;51.300;6.252;2024-01-30T06:30:56;6.50;99.90
37432;DHT22;23292;51.300;6.252;2024-01-30T06:33:22;6.50;99.90
37432;DHT22;23292;51.300;6.252;2024-01-30T06:35:49;6.50;99.90
37432;DHT22;23292;51.300;6.252;2024-01-30T06:38:16;6.40;99.90
37432;DHT22;23292;51.300;6.252;2024-01-30T06:40:43;6.40;99.90
37432;DHT22;23292;51.300;6.252;2024-01-30T06:43:10;6.40;99.90
37432;DHT22;23292;51.300;6.252;2024-01-30T06:45:37;6.50;99.90
37432;DHT22;23292;51.300;6.252;2024-01-30T06:48:05;6.60;99.90
37432;DHT22;23292;51.300;6.252;2024-01-30T06:50:32;6.60;99.90
37432;DHT22;23292;51.300;6.252;2024-01-30T06:52:59;6.60;99.90
37432;DHT22;23292;51.300;6.252;2024-01-30T06:55:26;6.70;99.90
37432;DHT22;23292;51.300;6.252;2024-01-30T06:57:53;6.70;99.90
37432;DHT22;23292;51.300;6.252;2024-01-30T07:00:20;6.70;99.90
37432;DHT22;23292;51.300;6.252;2024-01-30T07:02:48;6.80;99.90
37432;DHT22;23292;51.300;6.252;2024-01-30T07:05:15;6.80;99.90
37432;DHT22;23292;51.300;6.252;2024-01-30T07:07:44;6.80;99.90
37432;DHT22;23292;51.300;6.252;2024-01-30T07:10:11;6.80;99.90
37432;DHT22;23292;51.300;6.252;2024-01-30T07:12:38;6.80;99.90
37432;DHT22;23292;51.300;6.252;2024-01-30T07:15:05;6.80;99.90
37432;DHT22;23292;51.300;6.252;2024-01-30T07:17:35;6.90;99.90
37432;DHT22;23292;51.300;6.252;2024-01-30T07:20:02;6.80;99.90
37432;DHT22;23292;51.300;6.252;2024-01-30T07:22:30;6.80;99.90
37432;DHT22;23292;51.300;6.252;2024-01-30T07:24:57;6.80;99.90
37432;DHT22;23292;51.300;6.252;2024-01-30T07:27:25;6.90;99.90
37432;DHT22;23292;51.300;6.252;2024-01-30T07:29:51;6.90;99.90
37432;DHT22;23292;51.300;6.252;2024-01-30T07:32:18;6.90;99.90
37432;DHT22;23292;51.300;6.252;2024-01-30T07:34:46;7.00;99.90
37432;DHT22;23292;51.300;6.252;2024-01-30T07:37:31;7.00;99.90
37432;DHT22;23292;51.300;6.252;2024-01-30T07:39:59;7.00;99.90
37432;DHT22;23292;51.300;6.252;2024-01-30T07:42:26;7.00;99.90
37432;DHT22;23292;51.300;6.252;2024-01-30T07:44:53;7.10;99.90
37432;DHT22;23292;51.300;6.252;2024-01-30T07:47:20;7.20;99.90
37432;DHT22;23292;51.300;6.252;2024-01-30T07:49:47;7.20;99.90
37432;DHT22;23292;51.300;6.252;2024-01-30T07:52:14;7.30;99.90
37432;DHT22;23292;51.300;6.252;2024-01-30T07:54:42;7.30;99.90
37432;DHT22;23292;51.300;6.252;2024-01-30T07:57:09;7.40;99.90
37432;DHT22;23292;51.300;6.252;2024-01-30T07:59:36;7.40;99.90
37432;DHT22;23292;51.300;6.252;2024-01-30T08:02:03;7.40;99.90
37432;DHT22;23292;51.300;6.252;2024-01-30T08:04:30;7.50;99.90
37432;DHT22;23292;51.300;6.252;2024-01-30T08:06:58;7.50;99.90
37432;DHT22;23292;51.300;6.252;2024-01-30T08:09:25;7.50;99.90
37432;DHT22;23292;51.300;6.252;2024-01-30T08:11:52;7.60;99.90
37432;DHT22;23292;51.300;6.252;2024-01-30T08:14:19;7.60;99.90
37432;DHT22;23292;51.300;6.252;2024-01-30T08:16:46;7.60;99.90
37432;DHT22;23292;51.300;6.252;2024-01-30T08:19:14;7.70;99.90
37432;DHT22;23292;51.300;6.252;2024-01-30T08:21:41;7.70;99.90
37432;DHT22;23292;51.300;6.252;2024-01-30T08:24:09;7.70;99.90
37432;DHT22;23292;51.300;6.252;2024-01-30T08:26:36;7.70;99.90
37432;DHT22;23292;51.300;6.252;2024-01-30T08:29:04;7.70;99.90
37432;DHT22;23292;51.300;6.252;2024-01-30T08:31:31;7.70;99.90
37432;DHT22;23292;51.300;6.252;2024-01-30T08:33:58;7.70;99.90
37432;DHT22;23292;51.300;6.252;2024-01-30T08:36:25;7.70;99.90
37432;DHT22;23292;51.300;6.252;2024-01-30T08:38:52;7.70;99.90
37432;DHT22;23292;51.300;6.252;2024-01-30T08:41:25;7.70;99.90
37432;DHT22;23292;51.300;6.252;2024-01-30T08:43:52;7.70;99.90
37432;DHT22;23292;51.300;6.252;2024-01-30T08:46:19;7.80;99.90
37432;DHT22;23292;51.300;6.252;2024-01-30T08:48:46;7.80;99.90
37432;DHT22;23292;51.300;6.252;2024-01-30T08:51:14;7.80;99.90
37432;DHT22;23292;51.300;6.252;2024-01-30T08:53:42;7.90;99.90
37432;DHT22;23292;51.300;6.252;2024-01-30T08:56:10;8.00;99.90
37432;DHT22;23292;51.300;6.252;2024-01-30T08:58:36;8.00;99.90
37432;DHT22;23292;51.300;6.252;2024-01-30T09:01:05;8.20;99.90
37432;DHT22;23292;51.300;6.252;2024-01-30T09:03:33;8.30;99.90
37432;DHT22;23292;51.300;6.252;2024-01-30T09:06:00;8.30;99.90
37432;DHT22;23292;51.300;6.252;2024-01-30T09:08:27;8.40;99.90
37432;DHT22;23292;51.300;6.252;2024-01-30T09:10:54;8.50;99.90
37432;DHT22;23292;51.300;6.252;2024-01-30T09:13:21;8.60;99.90
37432;DHT22;23292;51.300;6.252;2024-01-30T09:15:48;8.70;99.90
37432;DHT22;23292;51.300;6.252;2024-01-30T09:18:17;8.80;99.90
37432;DHT22;23292;51.300;6.252;2024-01-30T09:20:44;8.90;99.90
37432;DHT22;23292;51.300;6.252;2024-01-30T09:23:14;9.10;99.90
37432;DHT22;23292;51.300;6.252;2024-01-30T09:25:40;9.20;99.90
37432;DHT22;23292;51.300;6.252;2024-01-30T09:28:08;9.40;99.90
37432;DHT22;23292;51.300;6.252;2024-01-30T09:30:36;9.60;99.90
37432;DHT22;23292;51.300;6.252;2024-01-30T09:33:03;9.80;99.90
37432;DHT22;23292;51.300;6.252;2024-01-30T09:35:30;9.90;99.90
37432;DHT22;23292;51.300;6.252;2024-01-30T09:37:57;10.00;99.90
37432;DHT22;23292;51.300;6.252;2024-01-30T09:40:25;10.00;99.90
37432;DHT22;23292;51.300;6.252;2024-01-30T09:42:52;10.00;99.90
37432;DHT22;23292;51.300;6.252;2024-01-30T09:45:24;10.10;99.90
37432;DHT22;23292;51.300;6.252;2024-01-30T09:47:52;10.00;99.90
37432;DHT22;23292;51.300;6.252;2024-01-30T09:50:20;10.00;99.90
37432;DHT22;23292;51.300;6.252;2024-01-30T09:52:47;10.00;99.90
37432;DHT22;23292;51.300;6.252;2024-01-30T09:55:14;10.10;99.90
37432;DHT22;23292;51.300;6.252;2024-01-30T09:57:42;10.20;99.90
37432;DHT22;23292;51.300;6.252;2024-01-30T10:00:10;10.30;99.90
37432;DHT22;23292;51.300;6.252;2024-01-30T10:02:40;10.40;99.90
37432;DHT22;23292;51.300;6.252;2024-01-30T10:05:08;10.50;99.90
37432;DHT22;23292;51.300;6.252;2024-01-30T10:07:35;10.60;99.90
37432;DHT22;23292;51.300;6.252;2024-01-30T10:10:02;10.80;99.90
37432;DHT22;23292;51.300;6.252;2024-01-30T10:12:29;10.90;99.90
37432;DHT22;23292;51.300;6.252;2024-01-30T10:14:56;11.00;99.90
37432;DHT22;23292;51.300;6.252;2024-01-30T10:17:25;11.00;99.90
37432;DHT22;23292;51.300;6.252;2024-01-30T10:20:00;11.10;99.90
37432;DHT22;23292;51.300;6.252;2024-01-30T10:22:31;11.30;99.90
37432;DHT22;23292;51.300;6.252;2024-01-30T10:24:58;11.30;99.90
37432;DHT22;23292;51.300;6.252;2024-01-30T10:27:31;11.30;99.90
37432;DHT22;23292;51.300;6.252;2024-01-30T10:29:58;11.40;99.90
37432;DHT22;23292;51.300;6.252;2024-01-30T10:32:25;11.40;99.90
37432;DHT22;23292;51.300;6.252;2024-01-30T10:34:52;11.50;99.90
37432;DHT22;23292;51.300;6.252;2024-01-30T10:37:25;11.60;99.90
37432;DHT22;23292;51.300;6.252;2024-01-30T10:39:53;11.60;99.90
37432;DHT22;23292;51.300;6.252;2024-01-30T10:42:26;11.70;99.90
37432;DHT22;23292;51.300;6.252;2024-01-30T10:45:02;11.70;99.90
37432;DHT22;23292;51.300;6.252;2024-01-30T10:47:34;11.70;99.90
37432;DHT22;23292;51.300;6.252;2024-01-30T10:50:02;11.70;99.90
37432;DHT22;23292;51.300;6.252;2024-01-30T10:52:32;11.60;99.90
37432;DHT22;23292;51.300;6.252;2024-01-30T10:54:59;11.60;99.90
37432;DHT22;23292;51.300;6.252;2024-01-30T10:57:27;11.50;99.90
37432;DHT22;23292;51.300;6.252;2024-01-30T10:59:57;11.50;99.90
37432;DHT22;23292;51.300;6.252;2024-01-30T11:02:26;11.60;99.90
37432;DHT22;23292;51.300;6.252;2024-01-30T11:04:57;11.70;99.90
37432;DHT22;23292;51.300;6.252;2024-01-30T11:07:27;11.70;99.90
37432;DHT22;23292;51.300;6.252;2024-01-30T11:12:28;11.70;99.90
37432;DHT22;23292;51.300;6.252;2024-01-30T11:17:41;11.90;99.90
37432;DHT22;23292;51.300;6.252;2024-01-30T11:20:27;11.90;99.90
37432;DHT22;23292;51.300;6.252;2024-01-30T11:22:59;12.00;99.90
37432;DHT22;23292;51.300;6.252;2024-01-30T11:25:26;12.00;99.90
37432;DHT22;23292;51.300;6.252;2024-01-30T11:27:56;11.90;99.90
37432;DHT22;23292;51.300;6.252;2024-01-30T11:30:31;12.00;99.90
37432;DHT22;23292;51.300;6.252;2024-01-30T11:35:26;12.00;99.90
37432;DHT22;23292;51.300;6.252;2024-01-30T11:37:54;12.00;99.90
37432;DHT22;23292;51.300;6.252;2024-01-30T11:40:21;12.00;99.90
37432;DHT22;23292;51.300;6.252;2024-01-30T11:42:48;12.00;99.90
37432;DHT22;23292;51.300;6.252;2024-01-30T11:45:17;12.00;99.90
37432;DHT22;23292;51.300;6.252;2024-01-30T11:47:44;12.00;99.90
37432;DHT22;23292;51.300;6.252;2024-01-30T11:50:11;12.00;99.90
37432;DHT22;23292;51.300;6.252;2024-01-30T11:52:38;12.00;99.90
37432;DHT22;23292;51.300;6.252;2024-01-30T11:55:06;12.00;99.90
37432;DHT22;23292;51.300;6.252;2024-01-30T11:57:36;11.90;99.90
37432;DHT22;23292;51.300;6.252;2024-01-30T12:00:04;12.00;99.90
37432;DHT22;23292;51.300;6.252;2024-01-30T12:02:37;12.00;99.90
37432;DHT22;23292;51.300;6.252;2024-01-30T12:05:07;12.00;99.90
37432;DHT22;23292;51.300;6.252;2024-01-30T12:07:34;12.10;99.90
37432;DHT22;23292;51.300;6.252;2024-01-30T12:10:01;12.10;99.90
37432;DHT22;23292;51.300;6.252;2024-01-30T12:12:29;12.00;99.90
37432;DHT22;23292;51.300;6.252;2024-01-30T12:14:56;12.00;99.90
37432;DHT22;23292;51.300;6.252;2024-01-30T12:17:32;12.00;99.90
37432;DHT22;23292;51.300;6.252;2024-01-30T12:20:17;12.00;99.90
37432;DHT22;23292;51.300;6.252;2024-01-30T12:22:46;12.00;99.90
37432;DHT22;23292;51.300;6.252;2024-01-30T12:25:19;12.00;99.90
37432;DHT22;23292;51.300;6.252;2024-01-30T12:27:49;12.00;99.90
37432;DHT22;23292;51.300;6.252;2024-01-30T12:30:20;12.10;99.90
37432;DHT22;23292;51.300;6.252;2024-01-30T12:32:50;12.10;99.90
37432;DHT22;23292;51.300;6.252;2024-01-30T12:35:19;12.10;99.90
37432;DHT22;23292;51.300;6.252;2024-01-30T12:37:48;12.20;99.90
37432;DHT22;23292;51.300;6.252;2024-01-30T12:40:15;12.40;99.90
37432;DHT22;23292;51.300;6.252;2024-01-30T12:42:43;12.50;99.90
37432;DHT22;23292;51.300;6.252;2024-01-30T12:45:13;12.50;99.90
37432;DHT22;23292;51.300;6.252;2024-01-30T12:47:42;12.70;99.90
37432;DHT22;23292;51.300;6.252;2024-01-30T12:50:09;12.70;99.90
37432;DHT22;23292;51.300;6.252;2024-01-30T12:52:37;12.80;99.90
37432;DHT22;23292;51.300;6.252;2024-01-30T12:55:04;12.90;99.90
37432;DHT22;23292;51.300;6.252;2024-01-30T12:57:31;13.00;99.90
37432;DHT22;23292;51.300;6.252;2024-01-30T12:59:58;13.00;99.90
37432;DHT22;23292;51.300;6.252;2024-01-30T13:02:25;13.20;99.90
37432;DHT22;23292;51.300;6.252;2024-01-30T13:04:54;13.10;99.90
37432;DHT22;23292;51.300;6.252;2024-01-30T13:07:21;13.20;99.90
37432;DHT22;23292;51.300;6.252;2024-01-30T13:09:48;13.10;99.90
37432;DHT22;23292;51.300;6.252;2024-01-30T13:12:15;13.10;99.90
37432;DHT22;23292;51.300;6.252;2024-01-30T13:14:42;13.10;99.90
37432;DHT22;23292;51.300;6.252;2024-01-30T13:17:09;13.00;99.90
37432;DHT22;23292;51.300;6.252;2024-01-30T13:19:37;12.90;99.90
37432;DHT22;23292;51.300;6.252;2024-01-30T13:22:04;12.80;99.90
37432;DHT22;23292;51.300;6.252;2024-01-30T13:24:31;12.80;99.90
37432;DHT22;23292;51.300;6.252;2024-01-30T13:26:58;12.70;99.90
37432;DHT22;23292;51.300;6.252;2024-01-30T13:29:25;12.60;99.90
37432;DHT22;23292;51.300;6.252;2024-01-30T13:31:52;12.60;99.90
37432;DHT22;23292;51.300;6.252;2024-01-30T13:34:19;12.50;99.90
37432;DHT22;23292;51.300;6.252;2024-01-30T13:36:46;12.50;99.90
37432;DHT22;23292;51.300;6.252;2024-01-30T13:39:15;12.50;99.90
37432;DHT22;23292;51.300;6.252;2024-01-30T13:41:42;12.50;99.90
37432;DHT22;23292;51.300;6.252;2024-01-30T13:44:09;12.50;99.90
37432;DHT22;23292;51.300;6.252;2024-01-30T13:46:36;12.50;99.90
37432;DHT22;23292;51.300;6.252;2024-01-30T13:49:03;12.50;99.90
37432;DHT22;23292;51.300;6.252;2024-01-30T13:51:30;12.50;99.90
37432;DHT22;23292;51.300;6.252;2024-01-30T13:53:57;12.40;99.90
37432;DHT22;23292;51.300;6.252;2024-01-30T13:56:24;12.40;99.90
37432;DHT22;23292;51.300;6.252;2024-01-30T13:58:53;12.30;99.90
37432;DHT22;23292;51.300;6.252;2024-01-30T14:01:22;12.20;99.90
37432;DHT22;23292;51.300;6.252;2024-01-30T14:03:49;12.20;99.90
37432;DHT22;23292;51.300;6.252;2024-01-30T14:06:16;12.10;99.90
37432;DHT22;23292;51.300;6.252;2024-01-30T14:08:43;12.10;99.90
37432;DHT22;23292;51.300;6.252;2024-01-30T14:11:18;12.20;99.90
37432;DHT22;23292;51.300;6.252;2024-01-30T14:13:45;12.20;99.90
37432;DHT22;23292;51.300;6.252;2024-01-30T14:16:12;12.30;99.90
37432;DHT22;23292;51.300;6.252;2024-01-30T14:18:39;12.30;99.90
37432;DHT22;23292;51.300;6.252;2024-01-30T14:21:08;12.20;99.90
37432;DHT22;23292;51.300;6.252;2024-01-30T14:23:36;12.10;99.90
37432;DHT22;23292;51.300;6.252;2024-01-30T14:26:02;11.90;99.90
37432;DHT22;23292;51.300;6.252;2024-01-30T14:28:29;11.90;99.90
37432;DHT22;23292;51.300;6.252;2024-01-30T14:30:56;11.90;99.90
37432;DHT22;23292;51.300;6.252;2024-01-30T14:33:24;11.90;99.90
37432;DHT22;23292;51.300;6.252;2024-01-30T14:35:51;12.00;99.90
37432;DHT22;23292;51.300;6.252;2024-01-30T14:38:18;11.90;99.90
37432;DHT22;23292;51.300;6.252;2024-01-30T14:40:45;11.90;99.90
37432;DHT22;23292;51.300;6.252;2024-01-30T14:43:12;11.80;99.90
37432;DHT22;23292;51.300;6.252;2024-01-30T14:45:40;11.80;99.90
37432;DHT22;23292;51.300;6.252;2024-01-30T14:48:09;11.60;99.90
37432;DHT22;23292;51.300;6.252;2024-01-30T14:50:37;11.50;99.90
37432;DHT22;23292;51.300;6.252;2024-01-30T14:53:04;11.50;99.90
37432;DHT22;23292;51.300;6.252;2024-01-30T14:55:31;11.50;99.90
37432;DHT22;23292;51.300;6.252;2024-01-30T14:57:58;11.40;99.90
37432;DHT22;23292;51.300;6.252;2024-01-30T15:00:27;11.50;99.90
37432;DHT22;23292;51.300;6.252;2024-01-30T15:02:54;11.40;99.90
37432;DHT22;23292;51.300;6.252;2024-01-30T15:05:21;11.40;99.90
37432;DHT22;23292;51.300;6.252;2024-01-30T15:07:47;11.40;99.90
37432;DHT22;23292;51.300;6.252;2024-01-30T15:10:15;11.30;99.90
37432;DHT22;23292;51.300;6.252;2024-01-30T15:12:42;11.30;99.90
37432;DHT22;23292;51.300;6.252;2024-01-30T15:15:08;11.20;99.90
37432;DHT22;23292;51.300;6.252;2024-01-30T15:17:38;11.10;99.90
37432;DHT22;23292;51.300;6.252;2024-01-30T15:20:05;11.00;99.90
37432;DHT22;23292;51.300;6.252;2024-01-30T15:22:32;10.90;99.90
37432;DHT22;23292;51.300;6.252;2024-01-30T15:24:59;10.80;99.90
37432;DHT22;23292;51.300;6.252;2024-01-30T15:27:27;10.80;99.90
37432;DHT22;23292;51.300;6.252;2024-01-30T15:29:57;10.80;99.90
37432;DHT22;23292;51.300;6.252;2024-01-30T15:32:23;10.80;99.90
37432;DHT22;23292;51.300;6.252;2024-01-30T15:34:51;10.80;99.90
37432;DHT22;23292;51.300;6.252;2024-01-30T15:37:18;10.90;99.90
37432;DHT22;23292;51.300;6.252;2024-01-30T15:39:45;10.80;99.90
37432;DHT22;23292;51.300;6.252;2024-01-30T15:42:12;10.70;99.90
37432;DHT22;23292;51.300;6.252;2024-01-30T15:44:39;10.70;99.90
37432;DHT22;23292;51.300;6.252;2024-01-30T15:47:05;10.70;99.90
37432;DHT22;23292;51.300;6.252;2024-01-30T15:49:32;10.70;99.90